SBI1278 UHHH-UHWW
Flight info
| Callsign | SBI1278 |
|---|---|
| Flight time | N/A |
| Altitude | 34000 |
| Route | ARDEL4R ARDEL B355 BG G714 DAGES DAGES2N |
| Aircraft | A20N/M-SDE2E3FGHIRWXY/LB1 |
Departure
| Time | N/A |
|---|---|
| Airport | Khabarovsk Novy Airport (UHHH) |
Arrival
| Time | 2026-05-09 08:20 |
|---|---|
| Airport | Vladivostok International Airport (UHWW) |
| Time | Latitude | Longitude | Altitude | Speed | Heading |
|---|---|---|---|---|---|
| 2026-05-09 07:58 | 43.48021 | 132.35918 | 4105 ft | 212 kts | 249° |
| 2026-05-09 07:59 | 43.47383 | 132.34135 | 4013 ft | 202 kts | 248° |
| 2026-05-09 07:59 | 43.46764 | 132.32485 | 3927 ft | 192 kts | 247° |
| 2026-05-09 07:59 | 43.46120 | 132.30836 | 3739 ft | 214 kts | 246° |
| 2026-05-09 07:59 | 43.45330 | 132.28805 | 3786 ft | 265 kts | 246° |
| 2026-05-09 08:00 | 43.44402 | 132.26458 | 4108 ft | 292 kts | 245° |
| 2026-05-09 08:00 | 43.43418 | 132.24019 | 4189 ft | 285 kts | 244° |
| 2026-05-09 08:00 | 43.42471 | 132.21716 | 4201 ft | 268 kts | 244° |
| 2026-05-09 08:00 | 43.41581 | 132.19552 | 4200 ft | 252 kts | 244° |
| 2026-05-09 08:01 | 43.40745 | 132.17515 | 4198 ft | 237 kts | 245° |
| 2026-05-09 08:01 | 43.39961 | 132.15596 | 4200 ft | 223 kts | 245° |
| 2026-05-09 08:01 | 43.39227 | 132.13792 | 4197 ft | 210 kts | 245° |
| 2026-05-09 08:01 | 43.38511 | 132.12014 | 4203 ft | 215 kts | 245° |
| 2026-05-09 08:02 | 43.37798 | 132.10241 | 4195 ft | 209 kts | 245° |
| 2026-05-09 08:02 | 43.37093 | 132.08489 | 4202 ft | 211 kts | 245° |
| 2026-05-09 08:02 | 43.36377 | 132.06713 | 4204 ft | 212 kts | 245° |
| 2026-05-09 08:02 | 43.35661 | 132.04939 | 4198 ft | 212 kts | 245° |
| 2026-05-09 08:03 | 43.34952 | 132.03186 | 4204 ft | 213 kts | 245° |
| 2026-05-09 08:03 | 43.34234 | 132.01413 | 4202 ft | 212 kts | 245° |
| 2026-05-09 08:03 | 43.33518 | 131.99643 | 4206 ft | 213 kts | 245° |
| 2026-05-09 08:03 | 43.32806 | 131.97868 | 4205 ft | 210 kts | 249° |
| 2026-05-09 08:04 | 43.32512 | 131.95947 | 4201 ft | 204 kts | 277° |
| 2026-05-09 08:04 | 43.32919 | 131.94122 | 4209 ft | 201 kts | 304° |
| 2026-05-09 08:04 | 43.33196 | 131.93602 | 4206 ft | 200 kts | 313° |
| 2026-05-09 08:04 | 43.35225 | 131.92285 | 4205 ft | 201 kts | 357° |
| 2026-05-09 08:05 | 43.36598 | 131.92716 | 4202 ft | 208 kts | 25° |
| 2026-05-09 08:05 | 43.37695 | 131.94041 | 4205 ft | 214 kts | 46° |
| 2026-05-09 08:05 | 43.38644 | 131.95626 | 4203 ft | 214 kts | 46° |
| 2026-05-09 08:05 | 43.39591 | 131.97196 | 4209 ft | 213 kts | 46° |
| 2026-05-09 08:06 | 43.40555 | 131.98770 | 4204 ft | 217 kts | 46° |
| 2026-05-09 08:06 | 43.41522 | 132.00340 | 4201 ft | 214 kts | 46° |
| 2026-05-09 08:06 | 43.42490 | 132.01914 | 4200 ft | 216 kts | 45° |
| 2026-05-09 08:06 | 43.43447 | 132.03469 | 4203 ft | 216 kts | 45° |
| 2026-05-09 08:07 | 43.44411 | 132.05038 | 4199 ft | 213 kts | 45° |
| 2026-05-09 08:07 | 43.45363 | 132.06587 | 4200 ft | 213 kts | 45° |
| 2026-05-09 08:07 | 43.46331 | 132.08154 | 4202 ft | 215 kts | 45° |
| 2026-05-09 08:07 | 43.47298 | 132.09728 | 4201 ft | 215 kts | 45° |
| 2026-05-09 08:08 | 43.48265 | 132.11307 | 4202 ft | 215 kts | 45° |
| 2026-05-09 08:08 | 43.49224 | 132.12873 | 4203 ft | 213 kts | 45° |
| 2026-05-09 08:08 | 43.50188 | 132.14442 | 4193 ft | 214 kts | 46° |
| 2026-05-09 08:08 | 43.51147 | 132.16018 | 4201 ft | 214 kts | 45° |
| 2026-05-09 08:09 | 43.52103 | 132.17585 | 4204 ft | 213 kts | 45° |
| 2026-05-09 08:09 | 43.52953 | 132.19241 | 4197 ft | 213 kts | 57° |
| 2026-05-09 08:09 | 43.53663 | 132.21041 | 4199 ft | 219 kts | 57° |
| 2026-05-09 08:09 | 43.54398 | 132.22884 | 4197 ft | 218 kts | 56° |
| 2026-05-09 08:10 | 43.55135 | 132.24710 | 4202 ft | 220 kts | 56° |
| 2026-05-09 08:10 | 43.55878 | 132.26555 | 4195 ft | 218 kts | 56° |
| 2026-05-09 08:10 | 43.56599 | 132.28357 | 4131 ft | 214 kts | 56° |
| 2026-05-09 08:10 | 43.57158 | 132.30266 | 3864 ft | 217 kts | 79° |
| 2026-05-09 08:11 | 43.57006 | 132.32357 | 3542 ft | 224 kts | 105° |
| 2026-05-09 08:11 | 43.56859 | 132.33024 | 3480 ft | 226 kts | 105° |
| 2026-05-09 08:11 | 43.56712 | 132.33685 | 3439 ft | 228 kts | 105° |
| 2026-05-09 08:12 | 43.55842 | 132.37687 | 3392 ft | 205 kts | 104° |
| 2026-05-09 08:12 | 43.55429 | 132.39576 | 3428 ft | 212 kts | 104° |
| 2026-05-09 08:12 | 43.55026 | 132.41490 | 3395 ft | 204 kts | 104° |
| 2026-05-09 08:13 | 43.54603 | 132.43379 | 3374 ft | 210 kts | 113° |
| 2026-05-09 08:13 | 43.53623 | 132.44785 | 3407 ft | 208 kts | 160° |
| 2026-05-09 08:13 | 43.52253 | 132.44872 | 3409 ft | 190 kts | 205° |
| 2026-05-09 08:13 | 43.51370 | 132.43772 | 3402 ft | 162 kts | 243° |
| 2026-05-09 08:14 | 43.50833 | 132.42473 | 3377 ft | 149 kts | 248° |
| 2026-05-09 08:14 | 43.50356 | 132.41252 | 3407 ft | 145 kts | 247° |
| 2026-05-09 08:14 | 43.49868 | 132.40048 | 3401 ft | 141 kts | 247° |
| 2026-05-09 08:14 | 43.49402 | 132.38913 | 3410 ft | 133 kts | 248° |
| 2026-05-09 08:15 | 43.48952 | 132.37796 | 3366 ft | 135 kts | 248° |
| 2026-05-09 08:15 | 43.48503 | 132.36694 | 3238 ft | 133 kts | 248° |
| 2026-05-09 08:15 | 43.48056 | 132.35594 | 3072 ft | 131 kts | 248° |
| 2026-05-09 08:15 | 43.47606 | 132.34484 | 2901 ft | 132 kts | 247° |
| 2026-05-09 08:16 | 43.47168 | 132.33407 | 2734 ft | 128 kts | 246° |
| 2026-05-09 08:16 | 43.46722 | 132.32306 | 2550 ft | 134 kts | 246° |
| 2026-05-09 08:16 | 43.46273 | 132.31204 | 2388 ft | 130 kts | 246° |
| 2026-05-09 08:16 | 43.45833 | 132.30118 | 2211 ft | 131 kts | 247° |
| 2026-05-09 08:17 | 43.45392 | 132.29034 | 2042 ft | 129 kts | 247° |
| 2026-05-09 08:17 | 43.44956 | 132.27957 | 1873 ft | 129 kts | 247° |
| 2026-05-09 08:17 | 43.44520 | 132.26884 | 1704 ft | 128 kts | 246° |
| 2026-05-09 08:17 | 43.44078 | 132.25793 | 1625 ft | 132 kts | 246° |
| 2026-05-09 08:18 | 43.43629 | 132.24701 | 1704 ft | 125 kts | 244° |
| 2026-05-09 08:18 | 43.43164 | 132.23689 | 1467 ft | 127 kts | 243° |
| 2026-05-09 08:18 | 43.42705 | 132.22636 | 1285 ft | 128 kts | 246° |
| 2026-05-09 08:18 | 43.42279 | 132.21525 | 1017 ft | 135 kts | 247° |
| 2026-05-09 08:19 | 43.41856 | 132.20376 | 799 ft | 134 kts | 245° |
| 2026-05-09 08:19 | 43.41412 | 132.19257 | 486 ft | 131 kts | 242° |
| 2026-05-09 08:19 | 43.40987 | 132.18209 | 302 ft | 123 kts | 243° |
| 2026-05-09 08:19 | 43.40594 | 132.17215 | 175 ft | 114 kts | 243° |
| 2026-05-09 08:20 | 43.40232 | 132.16290 | 60 ft | 103 kts | 240° |
| 2026-05-09 08:20 | 43.39945 | 132.15564 | 58 ft | 66 kts | 241° |
| 2026-05-09 08:20 | 43.39787 | 132.15173 | 62 ft | 30 kts | 242° |
| 2026-05-09 08:20 | 43.39664 | 132.14865 | 63 ft | 38 kts | 239° |
| 2026-05-09 08:21 | 43.39535 | 132.14549 | 62 ft | 38 kts | 242° |
| 2026-05-09 08:21 | 43.39506 | 132.14473 | 67 ft | 4 kts | 242° |
| 2026-05-09 08:21 | 43.39483 | 132.14418 | 60 ft | 9 kts | 240° |
| 2026-05-09 08:21 | 43.39446 | 132.14326 | 68 ft | 13 kts | 240° |
| 2026-05-09 08:22 | 43.39385 | 132.14227 | 63 ft | 15 kts | 212° |
| 2026-05-09 08:22 | 43.39317 | 132.14205 | 65 ft | 16 kts | 167° |
| 2026-05-09 08:22 | 43.39203 | 132.14340 | 66 ft | 11 kts | 87° |
| 2026-05-09 08:22 | 43.39234 | 132.14420 | 68 ft | 12 kts | 63° |
| 2026-05-09 08:23 | 43.39280 | 132.14546 | 68 ft | 17 kts | 63° |
| 2026-05-09 08:23 | 43.39346 | 132.14708 | 66 ft | 21 kts | 61° |
| 2026-05-09 08:23 | 43.39425 | 132.14902 | 66 ft | 25 kts | 62° |
| 2026-05-09 08:23 | 43.39515 | 132.15125 | 58 ft | 28 kts | 60° |
| 2026-05-09 08:24 | 43.39612 | 132.15366 | 65 ft | 28 kts | 62° |
| 2026-05-09 08:24 | 43.39709 | 132.15608 | 60 ft | 26 kts | 60° |
| 2026-05-09 08:24 | 43.39733 | 132.15702 | 68 ft | 2 kts | 108° |
| 2026-05-09 08:24 | 43.39695 | 132.15747 | 63 ft | 17 kts | 147° |
| 2026-05-09 08:25 | 43.39582 | 132.15855 | 62 ft | 8 kts | 117° |
| 2026-05-09 08:25 | 43.39586 | 132.15890 | 64 ft | 6 kts | 59° |
| 2026-05-09 08:25 | 43.39642 | 132.15891 | 62 ft | 11 kts | 334° |
| 2026-05-09 08:25 | 43.39703 | 132.15847 | 59 ft | 0 kts | 331° |